Time;durP1;ratioP1;P1;durP2;ratioP2;P2;SDS_P1;SDS_P2;PMS_P1;PMS_P2;Temp;Humidity;BMP_temperature;BMP_pressure;BME280_temperature;BME280_humidity;BME280_pressure;Samples;Min_cycle;Max_cycle;Signal;HPM_P1;HPM_P2
2024/01/16 00:01:20;;;;;;;;;;;;;;;2.27;52.78;97205.94;109571;1253;71789;-61
2024/01/16 00:03:47;;;;;;;;;;;;;;;2.22;53.07;97199.81;109533;1254;61782;-58
2024/01/16 00:06:15;;;;;;;;;;;;;;;2.20;53.32;97192.09;109529;1253;59363;-62
2024/01/16 00:08:42;;;;;;;;;;;;;;;2.26;53.03;97181.84;109643;1251;73467;-62
2024/01/16 00:11:10;;;;;;;;;;;;;;;2.19;53.36;97184.25;109576;1254;68398;-62
2024/01/16 00:13:37;;;;;;;;;;;;;;;2.19;53.63;97180.38;109231;1254;71432;-61
2024/01/16 00:16:05;;;;;;;;;;;;;;;2.25;53.69;97173.38;109246;1257;61716;-59
2024/01/16 00:18:33;;;;;;;;;;;;;;;2.34;53.49;97173.42;109064;1256;59907;-63
2024/01/16 00:21:02;;;;;;;;;;;;;;;2.26;53.65;97177.02;109135;1257;72807;-61
2024/01/16 00:23:32;;;;;;;;;;;;;;;2.23;53.77;97177.77;109134;1257;67684;-62
2024/01/16 00:26:00;;;;;;;;;;;;;;;2.10;54.24;97182.98;109127;1257;71558;-61
2024/01/16 00:28:27;;;;;;;;;;;;;;;2.19;53.95;97184.52;109111;1258;60455;-61
2024/01/16 00:30:55;;;;;;;;;;;;;;;2.18;54.53;97179.48;109132;1257;58937;-58
2024/01/16 00:33:22;;;;;;;;;;;;;;;2.36;54.23;97169.71;109139;1257;73524;-59
2024/01/16 00:35:51;;;;;;;;;;;;;;;2.56;53.79;97167.56;109170;1257;69013;-58
2024/01/16 00:38:18;;;;;;;;;;;;;;;2.61;53.91;97157.09;109122;1258;71077;-59
2024/01/16 00:40:46;;;;;;;;;;;;;;;2.70;53.98;97148.10;109101;1257;60533;-60
2024/01/16 00:43:13;;;;;;;;;;;;;;;2.76;53.90;97139.33;109255;1253;59420;-59
2024/01/16 00:45:41;;;;;;;;;;;;;;;2.87;53.70;97141.27;109415;1254;74737;-58
2024/01/16 00:48:10;;;;;;;;;;;;;;;2.99;53.31;97150.06;109592;1251;67743;-58
2024/01/16 00:50:38;;;;;;;;;;;;;;;2.82;53.68;97151.48;109638;1251;71487;-58
2024/01/16 00:53:05;;;;;;;;;;;;;;;3.05;53.08;97152.35;109512;1256;60483;-58
2024/01/16 00:55:33;;;;;;;;;;;;;;;3.12;52.76;97152.94;109556;1254;59110;-59
2024/01/16 00:58:00;;;;;;;;;;;;;;;3.19;52.62;97156.77;109158;1260;74721;-60
2024/01/16 01:00:30;;;;;;;;;;;;;;;3.18;52.50;97160.10;109335;1254;67312;-63
2024/01/16 01:02:58;;;;;;;;;;;;;;;3.38;51.92;97157.09;109349;1254;73650;-62
2024/01/16 01:05:28;;;;;;;;;;;;;;;3.28;52.25;97156.34;109389;1254;61751;-58
2024/01/16 01:07:56;;;;;;;;;;;;;;;3.40;51.82;97157.72;109336;1254;58849;-60
2024/01/16 01:10:23;;;;;;;;;;;;;;;3.36;51.90;97159.00;109456;1255;74745;-59
2024/01/16 01:12:53;;;;;;;;;;;;;;;3.41;51.75;97162.60;109608;1254;68835;-64
2024/01/16 01:15:21;;;;;;;;;;;;;;;3.38;51.74;97157.69;109294;1254;73638;-62
2024/01/16 01:17:49;;;;;;;;;;;;;;;3.46;51.60;97153.73;109535;1254;59471;-60
2024/01/16 01:20:17;;;;;;;;;;;;;;;3.38;51.59;97156.08;109566;1254;59867;-62
2024/01/16 01:22:45;;;;;;;;;;;;;;;3.18;52.03;97159.68;109570;1253;73841;-59
2024/01/16 01:25:12;;;;;;;;;;;;;;;3.27;51.89;97156.09;109627;1251;68905;-59
2024/01/16 01:27:40;;;;;;;;;;;;;;;3.21;52.02;97154.27;109570;1251;72846;-59
2024/01/16 01:30:10;;;;;;;;;;;;;;;3.22;51.92;97166.67;109637;1254;61700;-59
2024/01/16 01:32:37;;;;;;;;;;;;;;;3.33;51.68;97179.83;109667;1251;59100;-59
2024/01/16 01:35:06;;;;;;;;;;;;;;;3.27;51.71;97175.48;109630;1251;74719;-59
2024/01/16 01:37:33;;;;;;;;;;;;;;;3.42;51.36;97176.02;109622;1251;68809;-59
2024/01/16 01:40:01;;;;;;;;;;;;;;;3.39;51.50;97173.58;109594;1251;72757;-59
2024/01/16 01:42:28;;;;;;;;;;;;;;;3.30;51.54;97168.80;109279;1251;61718;-60
2024/01/16 01:44:56;;;;;;;;;;;;;;;3.14;52.06;97170.13;109585;1256;59009;-60
2024/01/16 01:47:23;;;;;;;;;;;;;;;3.08;52.22;97180.30;109562;1252;73441;-63
2024/01/16 01:49:51;;;;;;;;;;;;;;;2.86;52.92;97184.13;109515;1254;68561;-59
2024/01/16 01:52:18;;;;;;;;;;;;;;;3.01;52.59;97195.70;109292;1254;71484;-59
2024/01/16 01:54:46;;;;;;;;;;;;;;;3.16;52.19;97196.73;109534;1252;60517;-59
2024/01/16 01:57:13;;;;;;;;;;;;;;;3.27;51.68;97192.19;109456;1253;59092;-59
2024/01/16 01:59:41;;;;;;;;;;;;;;;3.18;51.76;97200.45;109532;1254;74740;-59
2024/01/16 02:02:08;;;;;;;;;;;;;;;3.17;51.55;97200.93;109526;1254;67616;-60
2024/01/16 02:04:36;;;;;;;;;;;;;;;3.03;51.82;97195.23;109521;1253;71871;-60
2024/01/16 02:07:03;;;;;;;;;;;;;;;2.97;51.85;97200.77;109440;1253;60872;-59
2024/01/16 02:09:31;;;;;;;;;;;;;;;2.82;52.00;97200.90;109546;1252;60050;-60
2024/01/16 02:11:59;;;;;;;;;;;;;;;2.73;52.41;97212.44;109393;1252;74752;-59
2024/01/16 02:14:26;;;;;;;;;;;;;;;2.48;53.27;97214.40;109497;1254;68833;-59
2024/01/16 02:16:54;;;;;;;;;;;;;;;2.29;53.84;97218.28;109279;1257;71983;-60
2024/01/16 02:19:21;;;;;;;;;;;;;;;2.33;53.84;97221.70;109069;1257;60560;-58
2024/01/16 02:21:49;;;;;;;;;;;;;;;2.40;53.91;97223.05;109058;1257;59862;-59
2024/01/16 02:24:18;;;;;;;;;;;;;;;2.30;54.21;97228.45;109154;1257;74740;-60
2024/01/16 02:26:45;;;;;;;;;;;;;;;2.24;54.40;97234.56;109156;1256;68941;-59
2024/01/16 02:29:13;;;;;;;;;;;;;;;2.22;54.65;97230.48;109164;1257;71475;-60
2024/01/16 02:31:40;;;;;;;;;;;;;;;2.16;55.02;97221.80;109163;1257;61710;-60
2024/01/16 02:34:08;;;;;;;;;;;;;;;2.26;54.95;97214.20;109157;1255;59884;-59
2024/01/16 02:36:36;;;;;;;;;;;;;;;2.41;54.41;97215.85;109200;1257;73655;-60
2024/01/16 02:39:06;;;;;;;;;;;;;;;2.48;54.13;97219.23;109162;1257;68064;-60
2024/01/16 02:41:33;;;;;;;;;;;;;;;2.50;54.24;97221.61;109254;1257;71339;-59
2024/01/16 02:44:01;;;;;;;;;;;;;;;2.54;54.13;97228.67;109155;1257;61729;-62
2024/01/16 02:46:29;;;;;;;;;;;;;;;2.50;54.29;97227.17;109126;1259;59030;-62
2024/01/16 02:48:56;;;;;;;;;;;;;;;2.66;53.88;97220.47;109171;1256;74647;-62
2024/01/16 02:51:24;;;;;;;;;;;;;;;2.55;54.11;97213.11;109156;1257;69030;-62
2024/01/16 02:53:51;;;;;;;;;;;;;;;2.46;54.46;97213.48;109221;1254;73157;-59
2024/01/16 02:56:19;;;;;;;;;;;;;;;2.40;54.65;97219.66;108747;1254;1002409;-60
2024/01/16 02:58:46;;;;;;;;;;;;;;;2.52;54.29;97221.98;109547;1253;59850;-59
2024/01/16 03:01:14;;;;;;;;;;;;;;;2.46;54.21;97221.23;109498;1252;73447;-60
2024/01/16 03:03:42;;;;;;;;;;;;;;;2.64;54.03;97227.18;109579;1253;67242;-62
2024/01/16 03:06:09;;;;;;;;;;;;;;;2.59;53.96;97231.92;109521;1254;72773;-61
2024/01/16 03:08:37;;;;;;;;;;;;;;;2.61;53.83;97232.58;109514;1252;61859;-60
2024/01/16 03:11:05;;;;;;;;;;;;;;;2.69;53.51;97232.27;109490;1254;58864;-59
2024/01/16 03:13:32;;;;;;;;;;;;;;;2.52;54.06;97227.24;109542;1253;73466;-59
2024/01/16 03:16:00;;;;;;;;;;;;;;;2.42;54.35;97224.28;109555;1253;67605;-60
2024/01/16 03:18:27;;;;;;;;;;;;;;;2.46;54.24;97223.13;109510;1253;71419;-59
2024/01/16 03:20:55;;;;;;;;;;;;;;;2.50;54.10;97225.52;109525;1254;61709;-60
2024/01/16 03:23:22;;;;;;;;;;;;;;;2.60;53.79;97229.48;109591;1252;58959;-64
2024/01/16 03:25:50;;;;;;;;;;;;;;;2.42;54.24;97236.92;109573;1252;73477;-59
2024/01/16 03:28:17;;;;;;;;;;;;;;;2.41;54.42;97239.58;109524;1253;67617;-60
2024/01/16 03:30:45;;;;;;;;;;;;;;;2.55;54.01;97242.71;109546;1253;71484;-60
2024/01/16 03:33:12;;;;;;;;;;;;;;;2.47;54.16;97238.13;109617;1253;61762;-59
2024/01/16 03:35:40;;;;;;;;;;;;;;;2.61;53.84;97238.52;109522;1253;60017;-59
2024/01/16 03:38:08;;;;;;;;;;;;;;;2.46;54.29;97239.71;109499;1254;74734;-59
2024/01/16 03:40:36;;;;;;;;;;;;;;;2.57;54.02;97244.09;109518;1253;68925;-59
2024/01/16 03:43:05;;;;;;;;;;;;;;;2.23;55.05;97233.71;109507;1252;71430;-59
2024/01/16 03:45:32;;;;;;;;;;;;;;;2.39;54.63;97227.77;109509;1254;61740;-60
2024/01/16 03:48:00;;;;;;;;;;;;;;;2.33;54.83;97230.75;109527;1254;59906;-59
2024/01/16 03:50:28;;;;;;;;;;;;;;;2.51;54.43;97235.55;109479;1254;73426;-60
2024/01/16 03:52:55;;;;;;;;;;;;;;;2.62;53.96;97235.27;109509;1253;67719;-60
2024/01/16 03:55:23;;;;;;;;;;;;;;;2.67;53.65;97234.98;109504;1253;72926;-59
2024/01/16 03:57:50;;;;;;;;;;;;;;;2.65;53.58;97231.89;109583;1253;60885;-59
2024/01/16 04:00:18;;;;;;;;;;;;;;;2.65;53.56;97237.77;109233;1253;59050;-59
2024/01/16 04:02:46;;;;;;;;;;;;;;;2.41;54.17;97234.23;109426;1254;74651;-60
2024/01/16 04:05:13;;;;;;;;;;;;;;;2.15;54.91;97237.52;109483;1253;68033;-60
2024/01/16 04:07:41;;;;;;;;;;;;;;;2.20;54.95;97234.81;109488;1252;72806;-63
2024/01/16 04:10:08;;;;;;;;;;;;;;;2.29;54.68;97236.59;109525;1253;60451;-63
2024/01/16 04:12:36;;;;;;;;;;;;;;;2.47;54.03;97234.25;108746;1254;1003011;-59
2024/01/16 04:15:04;;;;;;;;;;;;;;;2.23;54.63;97236.35;109564;1253;73968;-59
2024/01/16 04:17:31;;;;;;;;;;;;;;;2.13;55.23;97236.52;109557;1253;68866;-59
2024/01/16 04:19:59;;;;;;;;;;;;;;;2.26;54.79;97229.66;109493;1254;71782;-59
2024/01/16 04:22:26;;;;;;;;;;;;;;;2.26;54.59;97227.16;109513;1253;61777;-59
2024/01/16 04:24:54;;;;;;;;;;;;;;;2.25;54.81;97233.02;109484;1254;59050;-59
2024/01/16 04:27:21;;;;;;;;;;;;;;;2.33;54.33;97224.55;109235;1252;74770;-59
2024/01/16 04:29:49;;;;;;;;;;;;;;;2.26;54.67;97230.91;109418;1253;67313;-59
2024/01/16 04:32:16;;;;;;;;;;;;;;;2.15;54.92;97231.60;109528;1253;71834;-59
2024/01/16 04:34:43;;;;;;;;;;;;;;;2.12;54.77;97232.48;109473;1253;61730;-59
2024/01/16 04:37:11;;;;;;;;;;;;;;;1.95;55.42;97236.23;109500;1253;58926;-59
2024/01/16 04:39:39;;;;;;;;;;;;;;;2.07;55.13;97238.61;109501;1253;74713;-59
2024/01/16 04:42:06;;;;;;;;;;;;;;;2.10;54.76;97238.45;109525;1252;68834;-59
2024/01/16 04:44:33;;;;;;;;;;;;;;;2.07;54.61;97241.02;109503;1253;71466;-62
2024/01/16 04:47:02;;;;;;;;;;;;;;;2.09;54.54;97246.60;109584;1251;61890;-59
2024/01/16 04:49:29;;;;;;;;;;;;;;;1.93;55.06;97250.09;109618;1251;59969;-60
2024/01/16 04:51:56;;;;;;;;;;;;;;;1.88;55.16;97254.25;109375;1251;74733;-59
2024/01/16 04:54:24;;;;;;;;;;;;;;;1.80;55.56;97258.30;109631;1251;67588;-58
2024/01/16 04:56:51;;;;;;;;;;;;;;;1.80;55.45;97261.52;109611;1251;72567;-60
2024/01/16 04:59:19;;;;;;;;;;;;;;;1.48;56.65;97259.58;109623;1253;60517;-59
2024/01/16 05:01:46;;;;;;;;;;;;;;;1.11;58.02;97259.46;109639;1251;59079;-59
2024/01/16 05:04:14;;;;;;;;;;;;;;;0.77;58.79;97261.05;109674;1251;74737;-60
2024/01/16 05:06:41;;;;;;;;;;;;;;;0.98;59.12;97264.73;109639;1251;68834;-60
2024/01/16 05:09:10;;;;;;;;;;;;;;;0.95;59.02;97269.19;109654;1251;72730;-60
2024/01/16 05:11:38;;;;;;;;;;;;;;;0.94;59.26;97267.39;109612;1251;61747;-59
2024/01/16 05:14:06;;;;;;;;;;;;;;;0.88;59.15;97261.73;109412;1251;59177;-59
2024/01/16 05:16:34;;;;;;;;;;;;;;;0.96;58.82;97262.13;109628;1251;74725;-59
2024/01/16 05:19:01;;;;;;;;;;;;;;;0.90;58.88;97264.37;109451;1254;67582;-59
2024/01/16 05:21:28;;;;;;;;;;;;;;;0.78;59.42;97264.25;109194;1254;72704;-59
2024/01/16 05:23:56;;;;;;;;;;;;;;;0.69;59.74;97265.46;109342;1256;61377;-59
2024/01/16 05:26:24;;;;;;;;;;;;;;;0.87;59.19;97273.75;109410;1254;58895;-60
2024/01/16 05:28:51;;;;;;;;;;;;;;;0.89;58.89;97277.69;109353;1254;72493;-59
2024/01/16 05:31:19;;;;;;;;;;;;;;;0.92;58.85;97283.96;109433;1253;68920;-58
2024/01/16 05:33:47;;;;;;;;;;;;;;;0.90;59.01;97282.55;109307;1254;71451;-61
2024/01/16 05:36:14;;;;;;;;;;;;;;;0.86;58.81;97282.30;109448;1254;61054;-59
2024/01/16 05:38:42;;;;;;;;;;;;;;;0.90;59.01;97284.52;109410;1254;59022;-60
2024/01/16 05:41:09;;;;;;;;;;;;;;;-0.06;61.42;97283.03;109419;1254;73457;-60
2024/01/16 05:43:37;;;;;;;;;;;;;;;-0.14;63.33;97284.95;109259;1253;66599;-63
2024/01/16 05:46:05;;;;;;;;;;;;;;;0.35;61.89;97290.64;109452;1253;71528;-60
2024/01/16 05:48:32;;;;;;;;;;;;;;;0.26;61.34;97287.70;109449;1254;59742;-61
2024/01/16 05:51:00;;;;;;;;;;;;;;;0.41;61.21;97287.38;109561;1253;59854;-62
2024/01/16 05:53:27;;;;;;;;;;;;;;;0.54;60.87;97288.51;109676;1251;73851;-60
2024/01/16 05:55:55;;;;;;;;;;;;;;;0.70;59.97;97294.20;109591;1251;66562;-60
2024/01/16 05:58:22;;;;;;;;;;;;;;;0.52;60.71;97292.55;109628;1251;73180;-59
2024/01/16 06:00:50;;;;;;;;;;;;;;;0.48;60.65;97294.65;109596;1253;61856;-60
2024/01/16 06:03:17;;;;;;;;;;;;;;;-0.05;62.64;97298.90;109597;1251;59873;-60
2024/01/16 06:05:45;;;;;;;;;;;;;;;0.37;61.28;97306.54;109606;1251;73447;-60
2024/01/16 06:08:12;;;;;;;;;;;;;;;0.39;61.21;97308.85;109621;1251;69001;-60
2024/01/16 06:10:40;;;;;;;;;;;;;;;0.51;60.93;97319.73;109589;1251;73250;-61
2024/01/16 06:13:07;;;;;;;;;;;;;;;0.32;61.32;97319.58;109607;1253;61767;-61
2024/01/16 06:15:35;;;;;;;;;;;;;;;-0.89;66.66;97320.13;109615;1253;59813;-61
2024/01/16 06:18:02;;;;;;;;;;;;;;;-1.33;69.41;97321.41;109641;1251;74846;-62
2024/01/16 06:20:30;;;;;;;;;;;;;;;-0.61;68.30;97324.59;109578;1251;68802;-60
2024/01/16 06:22:58;;;;;;;;;;;;;;;-0.44;67.11;97328.21;109593;1251;71443;-62
2024/01/16 06:25:25;;;;;;;;;;;;;;;-0.15;65.64;97325.39;109584;1251;60789;-59
2024/01/16 06:27:53;;;;;;;;;;;;;;;-0.08;65.19;97327.70;109580;1251;59229;-60
2024/01/16 06:30:21;;;;;;;;;;;;;;;-0.06;64.67;97333.34;109643;1251;73436;-60
2024/01/16 06:32:49;;;;;;;;;;;;;;;-0.11;64.65;97344.39;109622;1251;67312;-60
2024/01/16 06:35:17;;;;;;;;;;;;;;;0.05;63.69;97351.17;109621;1251;71727;-59
2024/01/16 06:37:44;;;;;;;;;;;;;;;-0.25;64.62;97351.42;109645;1251;59590;-60
2024/01/16 06:40:12;;;;;;;;;;;;;;;-0.25;65.08;97351.42;109609;1251;59858;-60
2024/01/16 06:42:39;;;;;;;;;;;;;;;-0.50;65.66;97349.55;109621;1251;74720;-59
2024/01/16 06:45:07;;;;;;;;;;;;;;;-0.46;65.97;97352.07;109621;1251;68669;-63
2024/01/16 06:47:34;;;;;;;;;;;;;;;-0.73;67.50;97347.98;109516;1252;71625;-65
2024/01/16 06:50:03;;;;;;;;;;;;;;;-0.63;67.32;97349.52;109310;1252;60478;-63
2024/01/16 06:52:30;;;;;;;;;;;;;;;0.37;63.85;97361.59;109536;1252;59857;-60
2024/01/16 06:54:58;;;;;;;;;;;;;;;0.62;61.71;97375.27;109519;1253;73447;-60
2024/01/16 06:57:25;;;;;;;;;;;;;;;0.66;61.34;97381.65;109527;1252;67590;-61
2024/01/16 06:59:53;;;;;;;;;;;;;;;0.61;60.98;97388.02;109501;1252;71477;-61
2024/01/16 07:02:22;;;;;;;;;;;;;;;0.56;60.73;97389.31;109497;1253;60522;-63
2024/01/16 07:04:49;;;;;;;;;;;;;;;-0.22;63.85;97389.80;109504;1252;59107;-61
2024/01/16 07:07:17;;;;;;;;;;;;;;;-0.54;65.93;97389.51;109533;1252;74880;-61
2024/01/16 07:09:45;;;;;;;;;;;;;;;0.09;64.71;97389.65;109518;1253;68826;-61
2024/01/16 07:12:13;;;;;;;;;;;;;;;0.49;62.98;97395.56;109494;1253;72735;-62
2024/01/16 07:14:40;;;;;;;;;;;;;;;0.96;61.58;97400.90;109452;1253;61725;-61
2024/01/16 07:17:08;;;;;;;;;;;;;;;0.45;62.73;97398.92;109497;1253;58874;-62
2024/01/16 07:19:35;;;;;;;;;;;;;;;0.48;63.49;97399.50;109515;1252;74741;-61
2024/01/16 07:22:03;;;;;;;;;;;;;;;1.20;61.89;97404.85;109492;1253;68641;-62
2024/01/16 07:24:31;;;;;;;;;;;;;;;0.96;61.82;97406.70;109511;1252;70166;-61
2024/01/16 07:26:58;;;;;;;;;;;;;;;0.40;64.43;97407.88;109491;1253;60898;-60
2024/01/16 07:29:26;;;;;;;;;;;;;;;0.73;64.02;97413.20;109490;1253;58957;-61
2024/01/16 07:31:53;;;;;;;;;;;;;;;0.59;64.60;97413.76;109371;1252;74769;-61
2024/01/16 07:34:21;;;;;;;;;;;;;;;0.70;64.39;97416.09;109509;1253;68799;-60
2024/01/16 07:36:49;;;;;;;;;;;;;;;0.91;63.60;97413.46;109518;1253;72740;-60
2024/01/16 07:39:17;;;;;;;;;;;;;;;0.72;63.52;97412.21;109492;1253;59674;-61
2024/01/16 07:41:44;;;;;;;;;;;;;;;1.05;62.74;97415.28;109220;1252;59019;-61
2024/01/16 07:44:12;;;;;;;;;;;;;;;1.13;61.02;97422.75;109407;1253;74729;-59
2024/01/16 07:46:39;;;;;;;;;;;;;;;1.66;59.65;97424.16;109547;1251;68523;-59
2024/01/16 07:49:07;;;;;;;;;;;;;;;1.64;58.95;97432.13;109590;1251;72870;-60
2024/01/16 07:51:34;;;;;;;;;;;;;;;1.40;57.92;97416.41;109591;1253;59665;-59
2024/01/16 07:54:09;;;;;;;;;;;;;;;1.42;56.61;97414.16;109611;1251;59851;-59
2024/01/16 07:56:37;;;;;;;;;;;;;;;1.73;54.92;97430.58;109583;1252;74714;-58
2024/01/16 07:59:05;;;;;;;;;;;;;;;2.03;54.08;97432.26;109509;1252;66603;-60
2024/01/16 08:01:32;;;;;;;;;;;;;;;2.68;52.57;97444.92;108760;1252;1001966;-65
2024/01/16 08:04:00;;;;;;;;;;;;;;;3.03;51.78;97443.89;109496;1253;59971;-63
2024/01/16 08:06:28;;;;;;;;;;;;;;;3.12;50.93;97451.95;109453;1252;59865;-61
2024/01/16 08:08:55;;;;;;;;;;;;;;;3.09;50.81;97450.07;109525;1251;73467;-60
2024/01/16 08:11:23;;;;;;;;;;;;;;;3.16;50.97;97457.58;109597;1251;68821;-61
2024/01/16 08:13:50;;;;;;;;;;;;;;;3.15;50.37;97463.99;109562;1251;72654;-60
2024/01/16 08:16:18;;;;;;;;;;;;;;;2.93;50.02;97463.27;109609;1252;59664;-60
2024/01/16 08:18:45;;;;;;;;;;;;;;;3.02;49.36;97464.39;109645;1251;59867;-60
2024/01/16 08:21:13;;;;;;;;;;;;;;;3.01;49.04;97469.80;109622;1251;73463;-60
2024/01/16 08:23:40;;;;;;;;;;;;;;;2.83;49.05;97474.33;109493;1251;68866;-62
2024/01/16 08:26:08;;;;;;;;;;;;;;;2.44;49.46;97474.66;109469;1253;72744;-60
2024/01/16 08:28:35;;;;;;;;;;;;;;;2.32;49.68;97477.05;109468;1251;59481;-61
2024/01/16 08:31:03;;;;;;;;;;;;;;;2.23;49.62;97478.29;109626;1251;59884;-60
2024/01/16 08:33:31;;;;;;;;;;;;;;;2.34;49.47;97480.25;109665;1251;74728;-62
2024/01/16 08:36:09;;;;;;;;;;;;;;;2.41;49.42;97478.14;109315;1251;68025;-63
2024/01/16 08:38:37;;;;;;;;;;;;;;;2.30;48.93;97483.17;109642;1251;72746;-60
2024/01/16 08:41:06;;;;;;;;;;;;;;;2.32;48.85;97483.79;109581;1253;60963;-62
2024/01/16 08:43:33;;;;;;;;;;;;;;;2.16;48.50;97484.86;109368;1251;60472;-62
2024/01/16 08:46:01;;;;;;;;;;;;;;;1.86;48.81;97473.84;109360;1252;73462;-61
2024/01/16 08:48:28;;;;;;;;;;;;;;;2.04;48.18;97477.11;109604;1251;68868;-62
2024/01/16 08:50:56;;;;;;;;;;;;;;;2.09;48.21;97481.75;109604;1251;71472;-62
2024/01/16 08:53:24;;;;;;;;;;;;;;;2.27;48.35;97492.57;109600;1253;59305;-65
2024/01/16 08:55:51;;;;;;;;;;;;;;;2.24;48.79;97495.45;109606;1252;60100;-62
2024/01/16 08:58:19;;;;;;;;;;;;;;;2.35;48.78;97502.65;109582;1252;74783;-63
2024/01/16 09:00:47;;;;;;;;;;;;;;;2.24;49.00;97501.17;109630;1252;67562;-63
2024/01/16 09:03:14;;;;;;;;;;;;;;;2.17;48.95;97503.70;109498;1252;72334;-63
2024/01/16 09:05:43;;;;;;;;;;;;;;;2.25;48.88;97505.31;109576;1252;60111;-65
2024/01/16 09:08:11;;;;;;;;;;;;;;;2.19;48.67;97501.60;109593;1252;58887;-64
2024/01/16 09:10:40;;;;;;;;;;;;;;;2.05;48.85;97498.64;108835;1251;1002906;-63
2024/01/16 09:13:07;;;;;;;;;;;;;;;2.34;48.94;97505.66;109603;1251;67620;-62
2024/01/16 09:15:35;;;;;;;;;;;;;;;2.67;48.26;97511.14;109663;1251;71169;-66
2024/01/16 09:18:02;;;;;;;;;;;;;;;3.15;47.26;97522.84;109627;1251;59684;-65
2024/01/16 09:20:30;;;;;;;;;;;;;;;3.31;46.60;97530.42;109345;1251;59885;-66
2024/01/16 09:22:58;;;;;;;;;;;;;;;2.96;45.46;97530.14;109635;1251;73739;-62
2024/01/16 09:25:27;;;;;;;;;;;;;;;3.15;44.83;97533.28;109657;1251;68486;-63
2024/01/16 09:27:54;;;;;;;;;;;;;;;3.01;44.59;97535.36;109655;1251;72802;-62
2024/01/16 09:30:22;;;;;;;;;;;;;;;3.04;44.31;97538.14;109603;1251;59372;-61
2024/01/16 09:32:50;;;;;;;;;;;;;;;2.96;44.82;97547.67;109627;1251;58977;-60
2024/01/16 09:35:18;;;;;;;;;;;;;;;2.69;45.12;97545.11;109641;1251;72404;-62
2024/01/16 09:37:45;;;;;;;;;;;;;;;2.22;45.71;97537.36;109611;1251;67252;-60
2024/01/16 09:40:13;;;;;;;;;;;;;;;1.87;46.24;97533.84;109588;1251;72729;-60
2024/01/16 09:42:41;;;;;;;;;;;;;;;2.00;45.92;97543.05;109634;1251;60098;-59
2024/01/16 09:45:08;;;;;;;;;;;;;;;2.15;46.25;97545.13;108839;1251;1002097;-60
2024/01/16 09:47:36;;;;;;;;;;;;;;;2.45;45.96;97546.49;109673;1251;73994;-62
2024/01/16 09:50:05;;;;;;;;;;;;;;;2.53;45.37;97544.02;109580;1251;68475;-60
2024/01/16 09:52:32;;;;;;;;;;;;;;;2.60;45.01;97545.58;109574;1252;72712;-60
2024/01/16 09:54:59;;;;;;;;;;;;;;;2.86;44.98;97548.56;109537;1251;146333;-59
2024/01/16 09:57:27;;;;;;;;;;;;;;;2.71;45.21;97551.77;109547;1252;58950;-63
2024/01/16 09:59:55;;;;;;;;;;;;;;;3.01;45.14;97561.19;109344;1252;74740;-61
2024/01/16 10:02:23;;;;;;;;;;;;;;;3.05;44.92;97566.14;109542;1252;68553;-62
2024/01/16 10:04:51;;;;;;;;;;;;;;;2.82;45.38;97567.39;109401;1253;72839;-60
2024/01/16 10:07:18;;;;;;;;;;;;;;;2.82;46.34;97562.83;109592;1253;58930;-63
2024/01/16 10:09:46;;;;;;;;;;;;;;;2.87;47.81;97567.86;109644;1251;58938;-61
2024/01/16 10:12:14;;;;;;;;;;;;;;;2.80;48.55;97572.55;109581;1251;74669;-63
2024/01/16 10:14:43;;;;;;;;;;;;;;;2.80;48.92;97567.20;109631;1251;68529;-60
2024/01/16 10:17:17;;;;;;;;;;;;;;;2.56;49.51;97573.08;109593;1251;71902;-60
2024/01/16 10:19:49;;;;;;;;;;;;;;;2.45;50.28;97574.45;109597;1253;60892;-63
2024/01/16 10:22:24;;;;;;;;;;;;;;;2.73;49.68;97571.07;109642;1251;59048;-61
2024/01/16 10:25:02;;;;;;;;;;;;;;;2.94;49.35;97576.08;109639;1253;74768;-60
2024/01/16 10:27:31;;;;;;;;;;;;;;;2.90;49.08;97572.59;109642;1251;68825;-62
2024/01/16 10:29:58;;;;;;;;;;;;;;;3.19;48.45;97576.95;109623;1251;72665;-60
2024/01/16 10:32:30;;;;;;;;;;;;;;;3.12;48.23;97576.31;109290;1256;59325;-62
2024/01/16 10:35:10;;;;;;;;;;;;;;;3.31;47.56;97581.88;109476;1251;59056;-62
2024/01/16 10:37:49;;;;;;;;;;;;;;;3.35;47.85;97583.31;109650;1251;73448;-60
2024/01/16 10:40:26;;;;;;;;;;;;;;;3.31;47.56;97586.75;109621;1251;68499;-61
2024/01/16 10:43:03;;;;;;;;;;;;;;;3.17;47.47;97587.83;109492;1251;72714;-59
2024/01/16 10:45:31;;;;;;;;;;;;;;;3.30;47.10;97593.73;109614;1251;59271;-61
2024/01/16 10:48:02;;;;;;;;;;;;;;;3.71;46.10;97604.52;109460;1251;59857;-62
2024/01/16 10:50:35;;;;;;;;;;;;;;;4.10;45.48;97616.60;109652;1251;74708;-61
2024/01/16 10:53:06;;;;;;;;;;;;;;;3.90;45.09;97614.05;109640;1251;67610;-62
2024/01/16 10:55:54;;;;;;;;;;;;;;;3.79;43.88;97616.13;109657;1252;72712;-61
2024/01/16 10:58:21;;;;;;;;;;;;;;;3.88;42.44;97615.90;109492;1253;59336;-60
2024/01/16 11:00:50;;;;;;;;;;;;;;;3.92;41.84;97623.79;109596;1253;59851;-64
2024/01/16 11:03:18;;;;;;;;;;;;;;;4.20;41.21;97626.94;109574;1253;74739;-61
2024/01/16 11:05:46;;;;;;;;;;;;;;;4.22;40.69;97629.92;109639;1252;67632;-62
2024/01/16 11:08:16;;;;;;;;;;;;;;;3.82;40.97;97634.23;109406;1252;72703;-61
2024/01/16 11:10:44;;;;;;;;;;;;;;;3.29;41.79;97638.42;109470;1253;59308;-61
2024/01/16 11:13:12;;;;;;;;;;;;;;;2.90;42.97;97644.84;109454;1253;59856;-60
2024/01/16 11:15:39;;;;;;;;;;;;;;;2.74;43.13;97649.17;109409;1253;75074;-62
2024/01/16 11:18:07;;;;;;;;;;;;;;;2.73;43.21;97650.76;109472;1252;67838;-61
2024/01/16 11:20:35;;;;;;;;;;;;;;;2.45;43.86;97657.87;109374;1253;71447;-65
2024/01/16 11:23:23;;;;;;;;;;;;;;;2.48;43.55;97658.33;109451;1253;59021;-60
2024/01/16 11:25:51;;;;;;;;;;;;;;;2.48;43.89;97666.59;109522;1253;58971;-62
2024/01/16 11:28:19;;;;;;;;;;;;;;;2.52;43.80;97673.52;109512;1253;73813;-62
2024/01/16 11:30:47;;;;;;;;;;;;;;;3.08;43.09;97669.02;109434;1253;68839;-61
2024/01/16 11:33:33;;;;;;;;;;;;;;;3.61;42.29;97681.76;109496;1253;71467;-61
2024/01/16 11:36:01;;;;;;;;;;;;;;;3.90;42.57;97680.14;109274;1254;59022;-60
2024/01/16 11:38:29;;;;;;;;;;;;;;;4.21;43.01;97685.73;109487;1253;59863;-61
2024/01/16 11:40:57;;;;;;;;;;;;;;;4.30;42.89;97683.86;109438;1253;74743;-60
2024/01/16 11:43:33;;;;;;;;;;;;;;;4.03;43.27;97693.07;109432;1253;68897;-59
2024/01/16 11:46:01;;;;;;;;;;;;;;;3.86;43.44;97695.55;109478;1252;71465;-60
2024/01/16 11:48:29;;;;;;;;;;;;;;;3.95;43.53;97699.81;109569;1252;58949;-61
2024/01/16 11:50:57;;;;;;;;;;;;;;;4.32;42.91;97701.77;109578;1252;59972;-60
2024/01/16 11:53:33;;;;;;;;;;;;;;;3.59;43.77;97694.99;109558;1254;74818;-62
2024/01/16 11:56:01;;;;;;;;;;;;;;;3.56;43.94;97703.90;109447;1253;68446;-64
2024/01/16 11:58:28;;;;;;;;;;;;;;;3.44;43.93;97705.60;109352;1253;72705;-63
2024/01/16 12:00:57;;;;;;;;;;;;;;;3.41;43.76;97710.50;109362;1254;59499;-63
2024/01/16 12:03:24;;;;;;;;;;;;;;;2.90;44.60;97704.77;109446;1253;59027;-62
2024/01/16 12:06:02;;;;;;;;;;;;;;;3.31;44.13;97722.03;109459;1254;74507;-60
2024/01/16 12:08:30;;;;;;;;;;;;;;;3.08;44.27;97724.89;109324;1253;68527;-63
2024/01/16 12:10:59;;;;;;;;;;;;;;;3.16;44.09;97734.23;109359;1253;71502;-60
2024/01/16 12:13:27;;;;;;;;;;;;;;;3.78;43.60;97743.61;109143;1255;59290;-62
2024/01/16 12:16:01;;;;;;;;;;;;;;;3.36;43.52;97737.23;109395;1253;58961;-62
2024/01/16 12:18:28;;;;;;;;;;;;;;;3.27;43.70;97748.73;109400;1253;74692;-59
2024/01/16 12:21:09;;;;;;;;;;;;;;;3.39;43.24;97755.53;109357;1253;67209;-61
2024/01/16 12:23:37;;;;;;;;;;;;;;;3.08;43.45;97751.34;109147;1253;72744;-63
2024/01/16 12:26:22;;;;;;;;;;;;;;;3.04;43.89;97759.94;109022;1259;58947;-60
2024/01/16 12:28:53;;;;;;;;;;;;;;;3.18;43.54;97759.35;109294;1254;58946;-59
2024/01/16 12:31:26;;;;;;;;;;;;;;;3.68;43.17;97767.93;109214;1254;74741;-61
2024/01/16 12:33:55;;;;;;;;;;;;;;;4.24;42.16;97781.64;109292;1254;67723;-60
2024/01/16 12:36:30;;;;;;;;;;;;;;;3.95;42.13;97780.46;109319;1256;72714;-61
2024/01/16 12:38:58;;;;;;;;;;;;;;;3.83;42.15;97776.86;109238;1255;59311;-60
2024/01/16 12:41:30;;;;;;;;;;;;;;;3.45;42.79;97785.77;109264;1257;59081;-63
2024/01/16 12:44:08;;;;;;;;;;;;;;;3.76;42.47;97789.71;109315;1254;74799;-59
2024/01/16 12:46:45;;;;;;;;;;;;;;;3.80;42.07;97795.16;109097;1254;68546;-60
2024/01/16 12:49:12;;;;;;;;;;;;;;;3.31;42.63;97803.88;109255;1254;71145;-64
2024/01/16 12:51:40;;;;;;;;;;;;;;;3.02;43.12;97808.00;109258;1256;60139;-60